FMEP/ZSE METAR and TAF weather

Enter ICAO airport designator
Station Type Date Time Source
FMEP METAR 2020/02/29 03:30 UTC NOAA

FMEP 290330Z AUTO 04004KT 330V070 9999 BKN046 28/21 Q1008 NOSIG


Station Type Date Time Source
FMEP Decoded METAR 2020/02/29 03:30 UTC NOAA

Saint-Pierre, Reunion (FMEP) 21-20S 055-29E 53M
Feb 28, 2020 - 10:30 PM EST / 2020.02.29 0330 UTC
Wind: from the NE (040 degrees) at 5 MPH (4 KT) (direction variable):0
Visibility: greater than 7 mile(s):0
Sky conditions: mostly cloudy
Temperature: 82 F (28 C)
Dew Point: 69 F (21 C)
Relative Humidity: 65%
Pressure (altimeter): 29.77 in. Hg (1008 hPa)
ob: FMEP 290330Z AUTO 04004KT 330V070 9999 BKN046 28/21 Q1008 NOSIG
cycle: 3

Station Type Date Time Source
FMEP TAF 2020/02/07 12:00 UTC NOAA

TAF FMEP 071100Z 0712/0721 11020KT 9999 FEW030
TEMPO 0712/0715 11020G30KT
BECMG 0715/0717 08008KT

Example: see airport list